sensor_id;sensor_type;location;lat;lon;timestamp;pressure;altitude;pressure_sealevel;temperature;humidity
27144;BME280;14672;50.250;8.312;2022-07-30T00:01:45;98924.97;;;20.11;74.54
27144;BME280;14672;50.250;8.312;2022-07-30T00:04:13;98918.69;;;20.07;74.72
27144;BME280;14672;50.250;8.312;2022-07-30T00:06:42;98923.66;;;20.06;74.64
27144;BME280;14672;50.250;8.312;2022-07-30T00:09:08;98918.16;;;20.03;74.77
27144;BME280;14672;50.250;8.312;2022-07-30T00:11:35;98915.53;;;20.10;74.26
27144;BME280;14672;50.250;8.312;2022-07-30T00:14:01;98909.53;;;20.08;74.25
27144;BME280;14672;50.250;8.312;2022-07-30T00:16:29;98911.09;;;20.04;74.06
27144;BME280;14672;50.250;8.312;2022-07-30T00:18:55;98912.13;;;20.01;74.37
27144;BME280;14672;50.250;8.312;2022-07-30T00:21:24;98905.06;;;20.02;75.40
27144;BME280;14672;50.250;8.312;2022-07-30T00:23:50;98902.44;;;20.04;74.83
27144;BME280;14672;50.250;8.312;2022-07-30T00:26:19;98897.44;;;19.82;76.11
27144;BME280;14672;50.250;8.312;2022-07-30T00:28:50;98897.44;;;19.93;75.05
27144;BME280;14672;50.250;8.312;2022-07-30T00:31:16;98901.63;;;19.87;74.54
27144;BME280;14672;50.250;8.312;2022-07-30T00:33:42;98897.97;;;19.92;74.24
27144;BME280;14672;50.250;8.312;2022-07-30T00:36:07;98896.09;;;19.83;74.91
27144;BME280;14672;50.250;8.312;2022-07-30T00:38:33;98898.19;;;19.83;74.92
27144;BME280;14672;50.250;8.312;2022-07-30T00:40:59;98893.22;;;19.83;74.25
27144;BME280;14672;50.250;8.312;2022-07-30T00:43:25;98891.41;;;19.80;73.65
27144;BME280;14672;50.250;8.312;2022-07-30T00:45:51;98887.47;;;19.78;73.18
27144;BME280;14672;50.250;8.312;2022-07-30T00:48:17;98879.09;;;19.74;73.04
27144;BME280;14672;50.250;8.312;2022-07-30T00:50:43;98875.66;;;19.76;73.35
27144;BME280;14672;50.250;8.312;2022-07-30T00:53:08;98871.19;;;19.69;73.43
27144;BME280;14672;50.250;8.312;2022-07-30T00:55:34;98865.69;;;19.71;73.94
27144;BME280;14672;50.250;8.312;2022-07-30T00:58:01;98878.03;;;19.66;73.60
27144;BME280;14672;50.250;8.312;2022-07-30T01:00:30;98872.22;;;19.60;74.88
27144;BME280;14672;50.250;8.312;2022-07-30T01:02:56;98878.75;;;19.55;75.20
27144;BME280;14672;50.250;8.312;2022-07-30T01:05:22;98874.03;;;19.52;76.67
27144;BME280;14672;50.250;8.312;2022-07-30T01:07:48;98873.28;;;19.57;76.76
27144;BME280;14672;50.250;8.312;2022-07-30T01:10:16;98866.22;;;19.58;77.04
27144;BME280;14672;50.250;8.312;2022-07-30T01:12:43;98870.66;;;19.54;77.97
27144;BME280;14672;50.250;8.312;2022-07-30T01:15:10;98873.53;;;19.54;77.44
27144;BME280;14672;50.250;8.312;2022-07-30T01:17:38;98875.63;;;19.53;78.04
27144;BME280;14672;50.250;8.312;2022-07-30T01:20:47;98874.81;;;19.47;78.28
27144;BME280;14672;50.250;8.312;2022-07-30T01:23:28;98870.13;;;19.55;78.23
27144;BME280;14672;50.250;8.312;2022-07-30T01:26:07;98871.44;;;19.54;77.22
27144;BME280;14672;50.250;8.312;2022-07-30T01:28:45;98873.50;;;19.48;77.67
27144;BME280;14672;50.250;8.312;2022-07-30T01:31:14;98875.09;;;19.49;78.30
27144;BME280;14672;50.250;8.312;2022-07-30T01:33:44;98877.69;;;19.47;77.92
27144;BME280;14672;50.250;8.312;2022-07-30T01:36:15;98876.06;;;19.35;78.51
27144;BME280;14672;50.250;8.312;2022-07-30T01:38:44;98891.78;;;19.34;77.59
27144;BME280;14672;50.250;8.312;2022-07-30T01:41:12;98887.84;;;19.37;77.29
27144;BME280;14672;50.250;8.312;2022-07-30T01:43:40;98889.16;;;19.36;76.99
27144;BME280;14672;50.250;8.312;2022-07-30T01:46:08;98886.81;;;19.40;76.24
27144;BME280;14672;50.250;8.312;2022-07-30T01:48:38;98885.00;;;19.43;75.64
27144;BME280;14672;50.250;8.312;2022-07-30T01:51:06;98888.13;;;19.34;75.52
27144;BME280;14672;50.250;8.312;2022-07-30T01:53:38;98888.38;;;19.30;75.31
27144;BME280;14672;50.250;8.312;2022-07-30T01:56:04;98888.38;;;19.30;74.43
27144;BME280;14672;50.250;8.312;2022-07-30T01:58:36;98895.94;;;19.28;73.82
27144;BME280;14672;50.250;8.312;2022-07-30T02:01:04;98902.47;;;19.28;74.72
27144;BME280;14672;50.250;8.312;2022-07-30T02:03:30;98905.09;;;19.26;74.88
27144;BME280;14672;50.250;8.312;2022-07-30T02:06:15;98900.31;;;19.12;75.05
27144;BME280;14672;50.250;8.312;2022-07-30T02:08:52;98909.50;;;19.16;75.77
27144;BME280;14672;50.250;8.312;2022-07-30T02:11:19;98914.22;;;19.19;75.06
27144;BME280;14672;50.250;8.312;2022-07-30T02:14:28;98915.78;;;19.14;75.38
27144;BME280;14672;50.250;8.312;2022-07-30T02:16:56;98918.38;;;19.07;74.33
27144;BME280;14672;50.250;8.312;2022-07-30T02:19:31;98909.69;;;19.01;73.29
27144;BME280;14672;50.250;8.312;2022-07-30T02:22:03;98917.53;;;19.01;73.16
27144;BME280;14672;50.250;8.312;2022-07-30T02:24:31;98909.16;;;18.97;73.56
27144;BME280;14672;50.250;8.312;2022-07-30T02:27:07;98909.69;;;19.01;72.82
27144;BME280;14672;50.250;8.312;2022-07-30T02:29:36;98902.06;;;18.93;73.06
27144;BME280;14672;50.250;8.312;2022-07-30T02:32:08;98910.69;;;18.93;72.66
27144;BME280;14672;50.250;8.312;2022-07-30T02:34:37;98906.72;;;18.85;71.66
27144;BME280;14672;50.250;8.312;2022-07-30T02:37:07;98914.56;;;18.79;72.02
27144;BME280;14672;50.250;8.312;2022-07-30T02:39:37;98909.50;;;18.68;72.45
27144;BME280;14672;50.250;8.312;2022-07-30T02:42:05;98900.66;;;18.77;71.79
27144;BME280;14672;50.250;8.312;2022-07-30T02:44:34;98909.75;;;18.64;72.01
27144;BME280;14672;50.250;8.312;2022-07-30T02:47:02;98906.06;;;18.58;71.40
27144;BME280;14672;50.250;8.312;2022-07-30T02:49:30;98910.66;;;18.50;72.31
27144;BME280;14672;50.250;8.312;2022-07-30T02:52:00;98907.25;;;18.46;72.64
27144;BME280;14672;50.250;8.312;2022-07-30T02:54:27;98916.44;;;18.50;72.16
27144;BME280;14672;50.250;8.312;2022-07-30T02:56:56;98920.59;;;18.49;72.36
27144;BME280;14672;50.250;8.312;2022-07-30T02:59:25;98916.13;;;18.43;72.79
27144;BME280;14672;50.250;8.312;2022-07-30T03:01:54;98918.94;;;18.37;72.72
27144;BME280;14672;50.250;8.312;2022-07-30T03:04:21;98920.44;;;18.27;73.46
27144;BME280;14672;50.250;8.312;2022-07-30T03:06:48;98910.25;;;18.31;73.24
27144;BME280;14672;50.250;8.312;2022-07-30T03:09:16;98915.19;;;18.25;72.68
27144;BME280;14672;50.250;8.312;2022-07-30T03:11:43;98917.44;;;18.16;72.79
27144;BME280;14672;50.250;8.312;2022-07-30T03:14:10;98915.44;;;18.27;72.04
27144;BME280;14672;50.250;8.312;2022-07-30T03:16:37;98920.56;;;18.12;72.12
27144;BME280;14672;50.250;8.312;2022-07-30T03:19:07;98918.69;;;18.09;72.12
27144;BME280;14672;50.250;8.312;2022-07-30T03:21:36;98915.03;;;18.09;72.04
27144;BME280;14672;50.250;8.312;2022-07-30T03:24:04;98924.19;;;18.07;72.40
27144;BME280;14672;50.250;8.312;2022-07-30T03:26:32;98923.09;;;18.05;72.48
27144;BME280;14672;50.250;8.312;2022-07-30T03:29:01;98916.28;;;18.02;71.93
27144;BME280;14672;50.250;8.312;2022-07-30T03:31:28;98919.63;;;17.95;72.50
27144;BME280;14672;50.250;8.312;2022-07-30T03:33:55;98917.75;;;17.92;72.60
27144;BME280;14672;50.250;8.312;2022-07-30T03:36:21;98920.03;;;17.82;73.12
27144;BME280;14672;50.250;8.312;2022-07-30T03:38:47;98924.44;;;17.83;72.59
27144;BME280;14672;50.250;8.312;2022-07-30T03:41:14;98933.06;;;17.83;73.18
27144;BME280;14672;50.250;8.312;2022-07-30T03:43:41;98931.78;;;17.84;72.29
27144;BME280;14672;50.250;8.312;2022-07-30T03:46:09;98927.28;;;17.78;72.69
27144;BME280;14672;50.250;8.312;2022-07-30T03:48:36;98931.97;;;17.75;72.37
27144;BME280;14672;50.250;8.312;2022-07-30T03:51:06;98928.81;;;17.73;72.78
27144;BME280;14672;50.250;8.312;2022-07-30T03:53:32;98932.06;;;17.61;73.16
27144;BME280;14672;50.250;8.312;2022-07-30T03:55:58;98930.63;;;17.71;71.96
27144;BME280;14672;50.250;8.312;2022-07-30T03:58:25;98936.59;;;17.67;72.08
27144;BME280;14672;50.250;8.312;2022-07-30T04:00:51;98928.97;;;17.64;71.43
27144;BME280;14672;50.250;8.312;2022-07-30T04:03:24;98937.00;;;17.60;72.11
27144;BME280;14672;50.250;8.312;2022-07-30T04:05:50;98938.50;;;17.56;71.65
27144;BME280;14672;50.250;8.312;2022-07-30T04:08:16;98944.97;;;17.51;71.49
27144;BME280;14672;50.250;8.312;2022-07-30T04:10:42;98949.84;;;17.45;71.35
27144;BME280;14672;50.250;8.312;2022-07-30T04:13:09;98947.22;;;17.41;71.66
27144;BME280;14672;50.250;8.312;2022-07-30T04:18:19;98958.69;;;17.41;71.62
27144;BME280;14672;50.250;8.312;2022-07-30T04:20:46;98955.03;;;17.41;72.17
27144;BME280;14672;50.250;8.312;2022-07-30T04:23:14;98959.22;;;17.40;71.92
27144;BME280;14672;50.250;8.312;2022-07-30T04:25:42;98962.81;;;17.34;72.22
27144;BME280;14672;50.250;8.312;2022-07-30T04:28:09;98968.19;;;17.27;71.83
27144;BME280;14672;50.250;8.312;2022-07-30T04:30:36;98975.44;;;17.22;73.11
27144;BME280;14672;50.250;8.312;2022-07-30T04:33:04;98973.50;;;17.14;73.29
27144;BME280;14672;50.250;8.312;2022-07-30T09:01:18;99039.91;;;23.94;56.16
27144;BME280;14672;50.250;8.312;2022-07-30T09:03:44;99032.41;;;24.04;55.52
27144;BME280;14672;50.250;8.312;2022-07-30T09:06:10;99039.47;;;24.08;55.57
27144;BME280;14672;50.250;8.312;2022-07-30T09:08:40;99041.47;;;24.19;56.26
27144;BME280;14672;50.250;8.312;2022-07-30T09:11:06;99034.22;;;24.25;55.91
27144;BME280;14672;50.250;8.312;2022-07-30T09:13:36;99037.47;;;24.22;54.99
27144;BME280;14672;50.250;8.312;2022-07-30T09:16:04;99033.38;;;24.30;55.37
27144;BME280;14672;50.250;8.312;2022-07-30T09:18:39;99027.66;;;24.44;55.73
27144;BME280;14672;50.250;8.312;2022-07-30T09:21:21;99032.81;;;24.51;55.15
27144;BME280;14672;50.250;8.312;2022-07-30T09:24:00;99036.97;;;24.55;54.40
27144;BME280;14672;50.250;8.312;2022-07-30T09:26:29;99024.16;;;24.64;54.06
27144;BME280;14672;50.250;8.312;2022-07-30T09:29:16;99035.69;;;24.69;53.15
27144;BME280;14672;50.250;8.312;2022-07-30T09:32:05;99029.94;;;24.83;53.23
27144;BME280;14672;50.250;8.312;2022-07-30T09:34:34;99034.66;;;24.86;52.47
27144;BME280;14672;50.250;8.312;2022-07-30T09:37:04;99025.88;;;24.91;53.10
27144;BME280;14672;50.250;8.312;2022-07-30T09:39:42;99027.25;;;25.03;52.84
27144;BME280;14672;50.250;8.312;2022-07-30T09:42:22;99029.47;;;25.10;52.78
27144;BME280;14672;50.250;8.312;2022-07-30T09:44:49;99033.63;;;25.15;52.67
27144;BME280;14672;50.250;8.312;2022-07-30T09:47:33;99022.47;;;25.19;51.69
27144;BME280;14672;50.250;8.312;2022-07-30T09:50:14;99024.13;;;25.14;50.63
27144;BME280;14672;50.250;8.312;2022-07-30T09:52:44;99031.72;;;25.17;49.99
27144;BME280;14672;50.250;8.312;2022-07-30T09:55:13;99035.78;;;25.28;50.23
27144;BME280;14672;50.250;8.312;2022-07-30T09:57:57;99028.44;;;25.40;50.71
27144;BME280;14672;50.250;8.312;2022-07-30T10:00:26;99025.19;;;25.43;50.20
27144;BME280;14672;50.250;8.312;2022-07-30T10:02:53;99027.97;;;25.49;50.53
27144;BME280;14672;50.250;8.312;2022-07-30T10:05:20;99017.34;;;25.51;50.55
27144;BME280;14672;50.250;8.312;2022-07-30T10:07:58;99023.06;;;25.44;48.29
27144;BME280;14672;50.250;8.312;2022-07-30T10:10:30;99027.66;;;25.52;49.09
27144;BME280;14672;50.250;8.312;2022-07-30T10:12:58;99023.53;;;25.61;49.24
27144;BME280;14672;50.250;8.312;2022-07-30T10:15:32;99023.50;;;25.48;47.34
27144;BME280;14672;50.250;8.312;2022-07-30T10:17:59;99019.69;;;25.40;46.73
27144;BME280;14672;50.250;8.312;2022-07-30T10:20:27;99019.03;;;25.47;46.53
27144;BME280;14672;50.250;8.312;2022-07-30T10:22:53;99024.88;;;25.60;47.34
27144;BME280;14672;50.250;8.312;2022-07-30T10:25:22;99018.41;;;25.67;46.50
27144;BME280;14672;50.250;8.312;2022-07-30T10:27:50;99015.25;;;25.78;46.84
27144;BME280;14672;50.250;8.312;2022-07-30T10:30:16;99017.28;;;25.83;46.89
27144;BME280;14672;50.250;8.312;2022-07-30T10:32:44;99020.19;;;25.70;46.01
27144;BME280;14672;50.250;8.312;2022-07-30T10:35:12;99016.59;;;25.77;46.49
27144;BME280;14672;50.250;8.312;2022-07-30T10:37:43;99015.69;;;25.69;46.26
27144;BME280;14672;50.250;8.312;2022-07-30T10:40:32;99019.06;;;25.73;46.56
27144;BME280;14672;50.250;8.312;2022-07-30T10:46:18;99004.94;;;25.90;46.44
27144;BME280;14672;50.250;8.312;2022-07-30T10:48:49;99006.81;;;26.01;46.29
27144;BME280;14672;50.250;8.312;2022-07-30T10:51:16;98999.63;;;26.15;47.50
27144;BME280;14672;50.250;8.312;2022-07-30T10:53:44;99002.19;;;26.18;46.03
27144;BME280;14672;50.250;8.312;2022-07-30T10:56:19;99005.88;;;26.32;46.60
27144;BME280;14672;50.250;8.312;2022-07-30T10:59:09;99001.50;;;26.39;46.40
27144;BME280;14672;50.250;8.312;2022-07-30T11:04:27;99002.81;;;26.51;46.74
27144;BME280;14672;50.250;8.312;2022-07-30T11:09:56;98998.41;;;26.57;46.26
27144;BME280;14672;50.250;8.312;2022-07-30T11:12:57;98998.31;;;26.50;44.21
27144;BME280;14672;50.250;8.312;2022-07-30T11:15:57;98995.41;;;26.50;44.19
27144;BME280;14672;50.250;8.312;2022-07-30T11:18:26;98993.41;;;26.45;44.54
27144;BME280;14672;50.250;8.312;2022-07-30T11:21:18;98985.56;;;26.40;43.84
27144;BME280;14672;50.250;8.312;2022-07-30T11:23:45;98983.41;;;26.53;42.75
27144;BME280;14672;50.250;8.312;2022-07-30T11:29:48;98983.25;;;26.80;44.58
27144;BME280;14672;50.250;8.312;2022-07-30T11:31:49;98989.47;;;26.97;43.83
27144;BME280;14672;50.250;8.312;2022-07-30T11:37:12;98987.16;;;27.24;44.14
27144;BME280;14672;50.250;8.312;2022-07-30T11:42:33;98983.63;;;27.18;42.20
27144;BME280;14672;50.250;8.312;2022-07-30T11:45:19;98989.88;;;27.22;41.94
27144;BME280;14672;50.250;8.312;2022-07-30T11:47:57;98989.16;;;27.29;43.07
27144;BME280;14672;50.250;8.312;2022-07-30T11:50:30;98977.50;;;27.29;41.94
27144;BME280;14672;50.250;8.312;2022-07-30T11:53:02;98981.47;;;27.39;42.39
27144;BME280;14672;50.250;8.312;2022-07-30T11:55:33;98984.22;;;27.44;41.19
27144;BME280;14672;50.250;8.312;2022-07-30T11:58:02;98983.72;;;27.53;40.84
27144;BME280;14672;50.250;8.312;2022-07-30T12:00:40;98971.19;;;27.45;40.55
27144;BME280;14672;50.250;8.312;2022-07-30T12:03:08;98977.16;;;27.61;41.12
27144;BME280;14672;50.250;8.312;2022-07-30T12:05:34;98968.72;;;27.49;40.45
27144;BME280;14672;50.250;8.312;2022-07-30T12:08:00;98987.31;;;27.67;41.09
27144;BME280;14672;50.250;8.312;2022-07-30T12:10:26;98989.28;;;27.72;41.21
27144;BME280;14672;50.250;8.312;2022-07-30T12:12:52;98979.59;;;27.77;40.76
27144;BME280;14672;50.250;8.312;2022-07-30T12:15:30;98973.56;;;27.83;40.49
27144;BME280;14672;50.250;8.312;2022-07-30T12:17:57;98979.75;;;27.72;39.81
27144;BME280;14672;50.250;8.312;2022-07-30T12:20:23;98979.06;;;27.86;40.24
27144;BME280;14672;50.250;8.312;2022-07-30T12:22:49;98968.59;;;27.98;40.17
27144;BME280;14672;50.250;8.312;2022-07-30T12:25:15;98976.00;;;27.99;40.85
27144;BME280;14672;50.250;8.312;2022-07-30T12:27:45;98965.47;;;27.96;39.63
27144;BME280;14672;50.250;8.312;2022-07-30T12:30:16;98976.38;;;27.96;39.29
27144;BME280;14672;50.250;8.312;2022-07-30T12:32:46;98962.78;;;27.98;40.43
27144;BME280;14672;50.250;8.312;2022-07-30T12:35:12;98967.44;;;28.01;38.79
27144;BME280;14672;50.250;8.312;2022-07-30T12:37:39;98961.69;;;28.17;38.57
27144;BME280;14672;50.250;8.312;2022-07-30T12:40:12;98960.53;;;28.27;39.13
27144;BME280;14672;50.250;8.312;2022-07-30T12:42:54;98955.72;;;28.37;40.37
27144;BME280;14672;50.250;8.312;2022-07-30T12:45:28;98953.22;;;28.49;39.07
27144;BME280;14672;50.250;8.312;2022-07-30T12:47:56;98961.38;;;28.51;37.52
27144;BME280;14672;50.250;8.312;2022-07-30T12:50:22;98944.28;;;28.62;37.83
27144;BME280;14672;50.250;8.312;2022-07-30T12:52:51;98954.97;;;28.67;37.44
27144;BME280;14672;50.250;8.312;2022-07-30T12:55:27;98950.16;;;28.77;37.82
27144;BME280;14672;50.250;8.312;2022-07-30T12:58:00;98961.66;;;28.83;38.73
27144;BME280;14672;50.250;8.312;2022-07-30T13:00:47;98956.41;;;28.89;38.82
27144;BME280;14672;50.250;8.312;2022-07-30T13:03:28;98955.84;;;28.98;38.75
27144;BME280;14672;50.250;8.312;2022-07-30T13:05:57;98968.91;;;29.05;37.68
27144;BME280;14672;50.250;8.312;2022-07-30T13:08:52;98966.16;;;29.14;37.05
27144;BME280;14672;50.250;8.312;2022-07-30T13:11:21;98961.09;;;29.07;36.09
27144;BME280;14672;50.250;8.312;2022-07-30T13:13:48;98957.56;;;29.16;36.86
27144;BME280;14672;50.250;8.312;2022-07-30T13:16:15;98955.81;;;29.21;36.51
27144;BME280;14672;50.250;8.312;2022-07-30T13:18:41;98959.13;;;29.25;37.40
27144;BME280;14672;50.250;8.312;2022-07-30T13:21:08;98965.59;;;29.31;37.92
27144;BME280;14672;50.250;8.312;2022-07-30T13:23:36;98957.41;;;29.37;37.94
27144;BME280;14672;50.250;8.312;2022-07-30T13:26:05;98956.41;;;29.34;38.43
27144;BME280;14672;50.250;8.312;2022-07-30T13:28:32;98970.28;;;29.34;37.89
27144;BME280;14672;50.250;8.312;2022-07-30T13:31:00;98955.44;;;29.32;38.68
27144;BME280;14672;50.250;8.312;2022-07-30T13:33:26;98951.16;;;29.33;38.67
27144;BME280;14672;50.250;8.312;2022-07-30T13:35:52;98958.75;;;29.36;36.93
27144;BME280;14672;50.250;8.312;2022-07-30T13:38:18;98963.84;;;29.35;37.98
27144;BME280;14672;50.250;8.312;2022-07-30T13:40:44;98963.28;;;29.29;37.58
27144;BME280;14672;50.250;8.312;2022-07-30T13:43:10;98953.66;;;29.44;37.44
27144;BME280;14672;50.250;8.312;2022-07-30T13:45:36;98957.19;;;29.20;35.87
27144;BME280;14672;50.250;8.312;2022-07-30T13:48:02;98964.63;;;29.28;36.70
27144;BME280;14672;50.250;8.312;2022-07-30T13:50:28;98951.53;;;29.37;36.72
27144;BME280;14672;50.250;8.312;2022-07-30T13:52:54;98951.94;;;29.41;35.32
27144;BME280;14672;50.250;8.312;2022-07-30T13:55:20;98958.78;;;29.28;35.81
27144;BME280;14672;50.250;8.312;2022-07-30T13:57:46;98947.84;;;29.36;34.97
27144;BME280;14672;50.250;8.312;2022-07-30T14:00:15;98952.09;;;29.51;34.95
27144;BME280;14672;50.250;8.312;2022-07-30T14:02:41;98933.34;;;29.61;35.34
27144;BME280;14672;50.250;8.312;2022-07-30T14:05:07;98944.84;;;29.59;35.45
27144;BME280;14672;50.250;8.312;2022-07-30T14:07:35;98936.06;;;29.59;35.00
27144;BME280;14672;50.250;8.312;2022-07-30T14:10:03;98931.78;;;29.60;34.87
27144;BME280;14672;50.250;8.312;2022-07-30T14:12:29;98933.53;;;29.63;34.31
27144;BME280;14672;50.250;8.312;2022-07-30T14:14:55;98933.09;;;29.74;34.90
27144;BME280;14672;50.250;8.312;2022-07-30T14:17:20;98929.38;;;29.81;35.01
27144;BME280;14672;50.250;8.312;2022-07-30T14:19:46;98934.03;;;29.84;34.01
27144;BME280;14672;50.250;8.312;2022-07-30T14:22:12;98927.81;;;29.88;33.28
27144;BME280;14672;50.250;8.312;2022-07-30T14:24:38;98934.78;;;30.00;33.43
27144;BME280;14672;50.250;8.312;2022-07-30T14:27:04;98926.97;;;30.03;33.24
27144;BME280;14672;50.250;8.312;2022-07-30T14:29:30;98931.66;;;30.06;33.24
27144;BME280;14672;50.250;8.312;2022-07-30T14:31:56;98927.69;;;30.11;33.29
27144;BME280;14672;50.250;8.312;2022-07-30T14:34:21;98918.31;;;30.12;33.15
27144;BME280;14672;50.250;8.312;2022-07-30T14:36:47;98923.41;;;30.12;32.28
27144;BME280;14672;50.250;8.312;2022-07-30T14:39:13;98929.00;;;30.25;32.67
27144;BME280;14672;50.250;8.312;2022-07-30T14:41:39;98918.19;;;30.35;31.99
27144;BME280;14672;50.250;8.312;2022-07-30T14:44:05;98920.47;;;30.52;31.85
27144;BME280;14672;50.250;8.312;2022-07-30T14:46:37;98925.00;;;30.45;29.87
27144;BME280;14672;50.250;8.312;2022-07-30T14:49:03;98920.41;;;30.59;30.14
27144;BME280;14672;50.250;8.312;2022-07-30T14:51:29;98920.78;;;30.63;28.96
27144;BME280;14672;50.250;8.312;2022-07-30T14:53:56;98915.06;;;30.90;30.07
27144;BME280;14672;50.250;8.312;2022-07-30T14:56:22;98913.94;;;30.86;29.54
27144;BME280;14672;50.250;8.312;2022-07-30T14:58:50;98919.31;;;31.04;30.53
27144;BME280;14672;50.250;8.312;2022-07-30T15:01:16;98918.38;;;31.19;29.92
27144;BME280;14672;50.250;8.312;2022-07-30T15:03:43;98908.72;;;31.26;29.63
27144;BME280;14672;50.250;8.312;2022-07-30T15:06:09;98915.13;;;31.32;30.49
27144;BME280;14672;50.250;8.312;2022-07-30T15:08:37;98909.84;;;31.31;30.33
27144;BME280;14672;50.250;8.312;2022-07-30T15:11:04;98916.00;;;31.25;30.44
27144;BME280;14672;50.250;8.312;2022-07-30T15:13:29;98917.00;;;31.20;30.01
27144;BME280;14672;50.250;8.312;2022-07-30T15:15:55;98918.63;;;31.13;30.37
27144;BME280;14672;50.250;8.312;2022-07-30T15:18:21;98919.03;;;31.10;30.35
27144;BME280;14672;50.250;8.312;2022-07-30T15:20:47;98928.34;;;30.99;29.94
27144;BME280;14672;50.250;8.312;2022-07-30T15:23:13;98930.44;;;30.81;29.94
27144;BME280;14672;50.250;8.312;2022-07-30T15:25:40;98933.16;;;30.79;30.02
27144;BME280;14672;50.250;8.312;2022-07-30T15:28:06;98934.38;;;30.76;30.46
27144;BME280;14672;50.250;8.312;2022-07-30T15:30:32;98938.09;;;30.76;30.01
27144;BME280;14672;50.250;8.312;2022-07-30T15:32:58;98930.19;;;30.87;30.85
27144;BME280;14672;50.250;8.312;2022-07-30T15:35:24;98925.19;;;31.04;31.07
27144;BME280;14672;50.250;8.312;2022-07-30T15:37:51;98924.84;;;31.17;30.94
27144;BME280;14672;50.250;8.312;2022-07-30T15:40:17;98923.41;;;31.26;30.30
27144;BME280;14672;50.250;8.312;2022-07-30T15:42:44;98923.66;;;31.38;29.98
27144;BME280;14672;50.250;8.312;2022-07-30T15:45:10;98922.84;;;31.45;29.91
27144;BME280;14672;50.250;8.312;2022-07-30T15:47:36;98926.06;;;31.56;30.63
27144;BME280;14672;50.250;8.312;2022-07-30T15:50:04;98933.31;;;31.55;30.10
27144;BME280;14672;50.250;8.312;2022-07-30T15:52:30;98934.69;;;31.72;29.63
27144;BME280;14672;50.250;8.312;2022-07-30T15:54:56;98933.56;;;31.67;30.34
27144;BME280;14672;50.250;8.312;2022-07-30T15:57:22;98940.06;;;31.83;29.92
27144;BME280;14672;50.250;8.312;2022-07-30T15:59:48;98948.38;;;31.77;29.77
27144;BME280;14672;50.250;8.312;2022-07-30T16:02:14;98941.84;;;31.95;29.46
27144;BME280;14672;50.250;8.312;2022-07-30T16:04:40;98936.91;;;31.98;29.79
27144;BME280;14672;50.250;8.312;2022-07-30T16:07:06;98932.44;;;32.14;29.82
27144;BME280;14672;50.250;8.312;2022-07-30T16:09:32;98934.66;;;32.06;28.31
27144;BME280;14672;50.250;8.312;2022-07-30T16:11:58;98932.59;;;31.99;28.38
27144;BME280;14672;50.250;8.312;2022-07-30T16:14:24;98927.06;;;32.03;27.97
27144;BME280;14672;50.250;8.312;2022-07-30T16:16:50;98933.53;;;32.01;27.99
27144;BME280;14672;50.250;8.312;2022-07-30T16:19:17;98926.47;;;31.87;26.44
27144;BME280;14672;50.250;8.312;2022-07-30T16:21:43;98930.59;;;32.01;27.25
27144;BME280;14672;50.250;8.312;2022-07-30T16:24:09;98929.56;;;31.89;26.74
27144;BME280;14672;50.250;8.312;2022-07-30T16:26:34;98933.38;;;31.82;26.85
27144;BME280;14672;50.250;8.312;2022-07-30T16:29:05;98931.91;;;31.74;26.96
27144;BME280;14672;50.250;8.312;2022-07-30T16:31:31;98918.53;;;31.80;26.79
27144;BME280;14672;50.250;8.312;2022-07-30T16:33:57;98918.00;;;31.91;27.24
27144;BME280;14672;50.250;8.312;2022-07-30T16:36:23;98919.81;;;32.04;26.84
27144;BME280;14672;50.250;8.312;2022-07-30T16:38:48;98925.16;;;31.98;27.03
27144;BME280;14672;50.250;8.312;2022-07-30T16:41:14;98916.00;;;31.94;26.83
27144;BME280;14672;50.250;8.312;2022-07-30T16:43:40;98916.09;;;32.03;26.74
27144;BME280;14672;50.250;8.312;2022-07-30T16:46:06;98916.63;;;31.92;26.79
27144;BME280;14672;50.250;8.312;2022-07-30T16:48:32;98911.34;;;31.91;27.07
27144;BME280;14672;50.250;8.312;2022-07-30T16:50:58;98921.03;;;32.01;27.08
27144;BME280;14672;50.250;8.312;2022-07-30T16:53:24;98928.81;;;31.89;26.70
27144;BME280;14672;50.250;8.312;2022-07-30T16:55:50;98938.81;;;31.86;26.90
27144;BME280;14672;50.250;8.312;2022-07-30T16:58:16;98916.03;;;31.77;27.72
27144;BME280;14672;50.250;8.312;2022-07-30T17:00:42;98910.66;;;31.83;27.18
27144;BME280;14672;50.250;8.312;2022-07-30T17:03:08;98918.78;;;31.92;27.33
27144;BME280;14672;50.250;8.312;2022-07-30T17:05:34;98924.13;;;31.86;27.44
27144;BME280;14672;50.250;8.312;2022-07-30T17:08:01;98921.38;;;31.88;27.06
27144;BME280;14672;50.250;8.312;2022-07-30T17:10:27;98920.84;;;31.82;27.55
27144;BME280;14672;50.250;8.312;2022-07-30T17:12:53;98928.97;;;31.91;27.57
27144;BME280;14672;50.250;8.312;2022-07-30T17:15:18;98926.38;;;31.95;27.84
27144;BME280;14672;50.250;8.312;2022-07-30T17:17:44;98924.31;;;31.88;27.88
27144;BME280;14672;50.250;8.312;2022-07-30T17:20:11;98934.16;;;31.83;28.04
27144;BME280;14672;50.250;8.312;2022-07-30T17:22:37;98931.47;;;31.77;27.78
27144;BME280;14672;50.250;8.312;2022-07-30T17:25:04;98935.56;;;31.64;28.21
27144;BME280;14672;50.250;8.312;2022-07-30T17:27:30;98932.28;;;31.60;28.23
27144;BME280;14672;50.250;8.312;2022-07-30T17:29:59;98932.09;;;31.58;29.23
27144;BME280;14672;50.250;8.312;2022-07-30T17:32:25;98941.88;;;31.61;28.63
27144;BME280;14672;50.250;8.312;2022-07-30T17:34:51;98936.75;;;31.61;29.19
27144;BME280;14672;50.250;8.312;2022-07-30T17:37:17;98937.97;;;31.58;28.79
27144;BME280;14672;50.250;8.312;2022-07-30T17:39:43;98932.31;;;31.36;28.61
27144;BME280;14672;50.250;8.312;2022-07-30T17:42:10;98939.41;;;31.33;28.92
27144;BME280;14672;50.250;8.312;2022-07-30T17:44:36;98935.13;;;31.26;29.26
27144;BME280;14672;50.250;8.312;2022-07-30T17:47:03;98942.16;;;31.06;29.59
27144;BME280;14672;50.250;8.312;2022-07-30T17:49:29;98950.44;;;31.00;30.08
27144;BME280;14672;50.250;8.312;2022-07-30T17:51:56;98948.03;;;30.81;30.34
27144;BME280;14672;50.250;8.312;2022-07-30T17:54:21;98946.16;;;30.68;30.47
27144;BME280;14672;50.250;8.312;2022-07-30T17:56:47;98945.03;;;30.64;30.57